Time;durP1;ratioP1;P1;durP2;ratioP2;P2;SDS_P1;SDS_P2;PMS_P1;PMS_P2;Temp;Humidity;BMP_temperature;BMP_pressure;BME280_temperature;BME280_humidity;BME280_pressure;Samples;Min_cycle;Max_cycle;Signal;HPM_P1;HPM_P2
2023/02/10 00:01:15;;;;;;;75.87;22.10;;;3.00;92.50;;;;;;5094277;28;20020;-77
2023/02/10 00:03:41;;;;;;;69.80;22.00;;;3.10;92.80;;;;;;5125785;27;20032;-78
2023/02/10 00:06:08;;;;;;;69.60;21.90;;;3.10;92.80;;;;;;5110924;28;20036;-78
2023/02/10 00:08:34;;;;;;;72.10;22.33;;;3.10;92.80;;;;;;5094052;28;20031;-78
2023/02/10 00:11:02;;;;;;;65.33;21.57;;;3.10;93.00;;;;;;5128455;27;20028;-78
2023/02/10 00:13:28;;;;;;;51.03;21.43;;;3.10;93.00;;;;;;5094363;28;20024;-78
2023/02/10 00:15:57;;;;;;;64.33;20.67;;;3.10;93.10;;;;;;5095682;28;20024;-78
2023/02/10 00:18:22;;;;;;;80.33;20.60;;;3.20;93.30;;;;;;5094189;28;20133;-78
2023/02/10 00:20:48;;;;;;;123.60;21.60;;;3.10;93.30;;;;;;5128619;27;20051;-78
2023/02/10 00:23:13;;;;;;;113.73;20.23;;;3.10;93.30;;;;;;5128104;27;20028;-78
2023/02/10 00:25:39;;;;;;;77.30;20.30;;;3.10;93.40;;;;;;5094104;28;20028;-78
2023/02/10 00:28:05;;;;;;;68.00;19.87;;;3.10;93.40;;;;;;5094310;28;20107;-78
2023/02/10 00:30:31;;;;;;;91.73;19.77;;;3.00;93.40;;;;;;5111121;28;20032;-78
2023/02/10 00:32:57;;;;;;;91.13;20.33;;;3.10;93.50;;;;;;5093963;28;20171;-78
2023/02/10 00:35:23;;;;;;;57.60;18.90;;;3.10;93.60;;;;;;5110646;28;20030;-78
2023/02/10 00:37:48;;;;;;;118.17;21.63;;;3.00;93.60;;;;;;5093378;28;20040;-78
2023/02/10 00:40:14;;;;;;;77.03;21.73;;;3.00;93.70;;;;;;5094913;28;20089;-78
2023/02/10 00:42:40;;;;;;;59.87;20.43;;;3.00;93.70;;;;;;5111012;28;20548;-78
2023/02/10 00:45:06;;;;;;;98.53;21.73;;;3.00;93.90;;;;;;5093816;28;20020;-80
2023/02/10 00:47:32;;;;;;;56.10;19.43;;;3.00;94.00;;;;;;5110408;28;20028;-79
2023/02/10 00:49:57;;;;;;;51.97;20.07;;;3.00;94.20;;;;;;5127720;27;20077;-80
2023/02/10 00:52:24;;;;;;;55.93;17.40;;;3.00;94.30;;;;;;5093475;28;20028;-79
2023/02/10 00:54:49;;;;;;;84.40;20.43;;;3.00;94.40;;;;;;5094939;28;20027;-79
2023/02/10 00:57:15;;;;;;;108.40;20.40;;;3.00;94.50;;;;;;5110272;28;20040;-79
2023/02/10 00:59:41;;;;;;;96.20;21.07;;;3.00;94.60;;;;;;5110388;28;20032;-80
2023/02/10 01:02:07;;;;;;;90.60;20.80;;;3.00;94.70;;;;;;5110391;28;20039;-79
2023/02/10 01:04:33;;;;;;;124.97;21.03;;;3.00;94.80;;;;;;5093775;28;20020;-79
2023/02/10 01:06:59;;;;;;;97.13;20.30;;;3.00;94.80;;;;;;5092564;28;20541;-80
2023/02/10 01:09:25;;;;;;;96.30;21.10;;;3.00;94.90;;;;;;5110393;28;20028;-80
2023/02/10 01:11:50;;;;;;;87.10;21.13;;;3.00;95.00;;;;;;5093098;28;20501;-80
2023/02/10 01:14:16;;;;;;;130.97;21.63;;;3.00;95.10;;;;;;5109998;28;20034;-79
2023/02/10 01:16:42;;;;;;;83.37;19.60;;;2.90;95.20;;;;;;5093016;28;20519;-80
2023/02/10 01:19:08;;;;;;;114.20;20.00;;;2.90;95.30;;;;;;5126781;27;20044;-80
2023/02/10 01:21:36;;;;;;;126.27;21.43;;;2.90;95.40;;;;;;5094630;28;20020;-80
2023/02/10 01:24:03;;;;;;;98.83;20.23;;;2.90;96.00;;;;;;5109968;28;20034;-80
2023/02/10 01:26:28;;;;;;;86.20;19.77;;;2.90;95.90;;;;;;5109723;28;20028;-80
2023/02/10 01:28:54;;;;;;;110.43;20.70;;;2.90;95.90;;;;;;5093847;28;20024;-80
2023/02/10 01:31:20;;;;;;;97.70;20.73;;;2.90;96.00;;;;;;5109667;28;20491;-80
2023/02/10 01:33:49;;;;;;;86.77;19.73;;;2.80;95.90;;;;;;5109880;28;20028;-80
2023/02/10 01:36:16;;;;;;;93.73;18.17;;;2.80;96.00;;;;;;5094199;28;20034;-79
2023/02/10 01:38:43;;;;;;;71.90;19.07;;;2.80;96.20;;;;;;5094960;28;20031;-80
2023/02/10 01:41:09;;;;;;;72.57;20.13;;;2.80;96.30;;;;;;5126951;27;20483;-81
2023/02/10 01:43:56;;;;;;;68.13;18.53;;;2.80;96.30;;;;;;5093524;28;20028;-81
2023/02/10 01:46:22;;;;;;;77.70;19.53;;;2.80;96.40;;;;;;5094835;28;20024;-80
2023/02/10 01:48:47;;;;;;;114.47;21.60;;;2.80;97.00;;;;;;5110221;28;20024;-80
2023/02/10 01:51:15;;;;;;;86.90;20.23;;;2.80;97.00;;;;;;5093225;28;20038;-81
2023/02/10 01:53:42;;;;;;;71.70;20.77;;;2.80;97.20;;;;;;5126922;27;20028;-81
2023/02/10 01:56:10;;;;;;;63.80;20.10;;;2.70;97.10;;;;;;5092643;28;20060;-81
2023/02/10 01:58:37;;;;;;;69.23;19.20;;;2.70;97.10;;;;;;5108384;28;20089;-80
2023/02/10 02:01:03;;;;;;;80.93;19.07;;;2.60;97.00;;;;;;5092254;28;20077;-80
2023/02/10 02:03:29;;;;;;;66.03;18.97;;;2.70;97.30;;;;;;5092605;28;20024;-79
2023/02/10 02:05:55;;;;;;;74.27;18.87;;;2.60;97.30;;;;;;5093524;28;20073;-79
2023/02/10 02:08:23;;;;;;;67.23;19.03;;;2.60;97.20;;;;;;5108805;28;20032;-80
2023/02/10 02:11:11;;;;;;;68.50;19.07;;;2.60;97.20;;;;;;5093674;28;20020;-80
2023/02/10 02:14:09;;;;;;;65.07;18.73;;;2.60;97.20;;;;;;5091972;28;20468;-80
2023/02/10 02:16:44;;;;;;;63.93;17.13;;;2.60;97.20;;;;;;5091851;28;20044;-79
2023/02/10 02:19:50;;;;;;;65.83;17.57;;;2.50;97.30;;;;;;5071970;28;20098;-80
2023/02/10 02:22:34;;;;;;;71.90;18.67;;;2.50;97.30;;;;;;5072025;28;20151;-80
2023/02/10 02:25:28;;;;;;;57.38;17.40;;;2.40;97.40;;;;;;5072053;28;20028;-80
2023/02/10 02:28:11;;;;;;;57.73;17.83;;;2.40;97.30;;;;;;5073437;28;20111;-79
2023/02/10 02:30:40;;;;;;;40.90;14.13;;;2.40;97.40;;;;;;5071636;28;20488;-79
2023/02/10 02:33:18;;;;;;;60.00;18.40;;;2.40;97.30;;;;;;5071653;28;20112;-80
2023/02/10 02:35:51;;;;;;;50.97;18.27;;;2.40;97.50;;;;;;5071330;28;20020;-80
2023/02/10 02:38:17;;;;;;;67.80;18.63;;;2.30;97.30;;;;;;5071627;28;20029;-80
2023/02/10 02:40:42;;;;;;;74.80;18.10;;;2.30;97.30;;;;;;5073028;28;20028;-80
2023/02/10 02:43:08;;;;;;;81.27;17.80;;;2.30;97.40;;;;;;5073242;28;20036;-80
2023/02/10 02:45:50;;;;;;;67.27;18.03;;;2.30;97.40;;;;;;5071844;28;20389;-80
2023/02/10 02:48:33;;;;;;;70.07;18.33;;;2.20;97.50;;;;;;5071569;28;20066;-80
2023/02/10 02:51:17;;;;;;;44.38;13.90;;;2.20;97.60;;;;;;5072834;28;20024;-79
2023/02/10 02:53:57;;;;;;;62.45;16.75;;;2.20;97.80;;;;;;5071854;28;20021;-80
2023/02/10 02:56:36;;;;;;;64.67;16.87;;;2.30;97.70;;;;;;5072749;28;20029;-79
2023/02/10 02:59:15;;;;;;;53.50;17.53;;;2.20;97.60;;;;;;5072859;28;20020;-79
2023/02/10 03:01:55;;;;;;;45.90;17.43;;;2.20;97.50;;;;;;5071528;28;20025;-79
2023/02/10 03:04:22;;;;;;;29.27;15.77;;;2.20;97.40;;;;;;5071404;28;20025;-79
2023/02/10 03:06:47;;;;;;;53.60;17.00;;;2.20;97.40;;;;;;5072196;28;20031;-80
2023/02/10 03:09:14;;;;;;;43.07;15.83;;;2.20;97.40;;;;;;5071986;28;20025;-79
2023/02/10 03:11:40;;;;;;;41.50;16.57;;;2.20;97.60;;;;;;5076589;28;20028;-79
2023/02/10 03:14:05;;;;;;;47.10;18.10;;;2.20;97.60;;;;;;5109118;28;20365;-80
2023/02/10 03:16:31;;;;;;;33.10;16.03;;;2.20;97.60;;;;;;5109224;28;20040;-79
2023/02/10 03:18:57;;;;;;;37.90;16.27;;;2.10;97.60;;;;;;5127479;27;20052;-79
2023/02/10 03:21:23;;;;;;;34.97;16.27;;;2.10;97.60;;;;;;5095797;28;20499;-79
2023/02/10 03:23:48;;;;;;;40.27;16.57;;;2.10;97.70;;;;;;5112344;28;20028;-78
2023/02/10 03:26:14;;;;;;;43.97;15.90;;;2.20;97.80;;;;;;5095138;28;20085;-79
2023/02/10 03:28:39;;;;;;;40.37;15.73;;;2.10;98.00;;;;;;5095020;28;20491;-79
2023/02/10 03:31:07;;;;;;;50.30;16.07;;;2.00;97.70;;;;;;5112469;28;20445;-79
2023/02/10 03:33:33;;;;;;;46.73;16.30;;;2.00;97.60;;;;;;5129275;27;20032;-79
2023/02/10 03:35:59;;;;;;;48.67;17.63;;;2.00;97.60;;;;;;5094617;28;20020;-79
2023/02/10 03:38:26;;;;;;;40.57;16.57;;;1.90;97.50;;;;;;5095015;28;20085;-79
2023/02/10 03:40:52;;;;;;;38.47;16.60;;;1.90;97.40;;;;;;5111897;28;20035;-80
2023/02/10 03:43:19;;;;;;;33.77;16.53;;;1.90;97.30;;;;;;5129183;27;20135;-79
2023/02/10 03:45:45;;;;;;;34.10;16.17;;;1.80;97.20;;;;;;5095024;28;20487;-79
2023/02/10 03:48:11;;;;;;;28.90;15.50;;;1.80;97.30;;;;;;5112048;28;20028;-79
2023/02/10 03:50:37;;;;;;;38.50;17.23;;;1.70;97.30;;;;;;5094803;28;20021;-79
2023/02/10 03:53:03;;;;;;;37.27;17.37;;;1.70;97.30;;;;;;5128929;27;20035;-79
2023/02/10 03:55:29;;;;;;;38.37;15.27;;;1.70;97.30;;;;;;5128920;27;20055;-79
2023/02/10 03:57:54;;;;;;;30.20;15.73;;;1.70;97.20;;;;;;5111639;28;20079;-79
2023/02/10 04:00:20;;;;;;;33.80;16.17;;;1.60;97.10;;;;;;5094731;28;20464;-79
2023/02/10 04:02:46;;;;;;;35.27;16.83;;;1.60;97.10;;;;;;5128710;27;20051;-79
2023/02/10 04:05:12;;;;;;;35.17;16.73;;;1.60;97.20;;;;;;5111742;28;20024;-80
2023/02/10 04:07:38;;;;;;;26.53;16.03;;;1.50;97.20;;;;;;5094266;28;20123;-80
2023/02/10 04:10:04;;;;;;;40.23;15.57;;;1.50;97.20;;;;;;5111543;28;20056;-80
2023/02/10 04:12:31;;;;;;;37.00;16.57;;;1.50;97.20;;;;;;5111251;28;20058;-80
2023/02/10 04:14:57;;;;;;;30.60;15.37;;;1.50;97.20;;;;;;5094488;28;20032;-80
2023/02/10 04:17:23;;;;;;;30.27;16.63;;;1.40;97.20;;;;;;5094440;28;20514;-79
2023/02/10 04:19:48;;;;;;;26.70;15.63;;;1.40;97.30;;;;;;5094088;28;20032;-79
2023/02/10 04:22:14;;;;;;;32.17;14.77;;;1.50;97.30;;;;;;5127482;27;20028;-79
2023/02/10 04:24:40;;;;;;;33.13;15.80;;;1.40;97.30;;;;;;5110959;28;20024;-79
2023/02/10 04:27:05;;;;;;;40.87;16.33;;;1.40;97.40;;;;;;5094208;28;20035;-78
2023/02/10 04:29:31;;;;;;;37.87;16.83;;;1.40;97.40;;;;;;5110754;28;20081;-79
2023/02/10 04:31:56;;;;;;;42.90;16.03;;;1.30;97.40;;;;;;5128373;27;20025;-78
2023/02/10 04:34:22;;;;;;;36.17;16.53;;;1.40;97.40;;;;;;5094243;28;20488;-78
2023/02/10 04:36:48;;;;;;;36.37;16.53;;;1.30;97.40;;;;;;5110674;28;20480;-77
2023/02/10 04:39:13;;;;;;;42.07;17.00;;;1.30;97.40;;;;;;5110864;28;20028;-78
2023/02/10 04:41:39;;;;;;;44.10;17.13;;;1.30;97.50;;;;;;5110681;28;20036;-78
2023/02/10 04:44:05;;;;;;;38.87;17.70;;;1.20;97.50;;;;;;5093589;28;20025;-77
2023/02/10 04:46:31;;;;;;;40.60;16.43;;;1.20;97.60;;;;;;5110761;28;20123;-78
2023/02/10 04:48:56;;;;;;;36.83;14.93;;;1.20;97.70;;;;;;5128082;27;20115;-77
2023/02/10 04:51:22;;;;;;;41.47;15.43;;;1.20;97.80;;;;;;5127583;27;20062;-78
2023/02/10 04:53:48;;;;;;;33.37;15.80;;;1.30;97.80;;;;;;5095155;28;20021;-78
2023/02/10 04:56:14;;;;;;;43.93;17.23;;;1.20;97.70;;;;;;5094239;28;20040;-78
2023/02/10 04:58:40;;;;;;;47.57;16.93;;;1.20;97.80;;;;;;5095199;28;20111;-78
2023/02/10 05:01:06;;;;;;;50.77;16.63;;;1.20;97.80;;;;;;5093664;28;20024;-79
2023/02/10 05:03:32;;;;;;;52.13;17.87;;;1.20;97.90;;;;;;5093339;28;20090;-78
2023/02/10 05:05:58;;;;;;;51.97;18.00;;;1.10;98.00;;;;;;5093182;28;20063;-78
2023/02/10 05:08:24;;;;;;;32.10;17.63;;;1.10;98.10;;;;;;5110166;28;20518;-78
2023/02/10 05:10:51;;;;;;;59.47;17.47;;;1.10;98.20;;;;;;5110619;28;20032;-78
2023/02/10 05:13:17;;;;;;;39.57;17.00;;;1.10;98.30;;;;;;5110291;28;20472;-78
2023/02/10 05:15:43;;;;;;;38.43;16.93;;;1.10;98.30;;;;;;5088932;28;20031;-78
2023/02/10 05:18:08;;;;;;;34.83;15.77;;;1.10;98.30;;;;;;5090729;28;20106;-78
2023/02/10 05:20:34;;;;;;;50.50;17.70;;;1.10;98.40;;;;;;5086866;28;20024;-78
2023/02/10 05:23:00;;;;;;;37.33;17.03;;;1.10;98.40;;;;;;5081822;28;20062;-78
2023/02/10 05:25:26;;;;;;;38.70;17.80;;;1.10;98.50;;;;;;5093990;28;20067;-78
2023/02/10 05:27:51;;;;;;;30.97;16.83;;;1.10;98.60;;;;;;5094957;28;20032;-78
2023/02/10 05:30:17;;;;;;;46.77;16.40;;;1.10;98.70;;;;;;5104996;28;20060;-78
2023/02/10 05:32:43;;;;;;;42.43;16.30;;;1.10;98.70;;;;;;5072081;28;20107;-78
2023/02/10 05:35:09;;;;;;;37.07;16.33;;;1.10;98.80;;;;;;5073647;28;20028;-78
2023/02/10 05:37:35;;;;;;;38.70;16.90;;;1.20;98.90;;;;;;5088777;28;20154;-78
2023/02/10 05:40:01;;;;;;;45.50;16.67;;;1.10;98.80;;;;;;5072510;28;20488;-78
2023/02/10 05:42:27;;;;;;;34.87;17.33;;;1.10;98.80;;;;;;5089147;28;20028;-77
2023/02/10 05:44:53;;;;;;;43.83;17.37;;;1.10;98.90;;;;;;5089151;28;20832;-78
2023/02/10 05:47:18;;;;;;;37.43;15.73;;;1.10;99.00;;;;;;5089139;28;20094;-78
2023/02/10 05:49:44;;;;;;;80.87;17.27;;;1.10;99.00;;;;;;5088969;28;20033;-78
2023/02/10 05:52:09;;;;;;;38.17;16.80;;;1.10;99.00;;;;;;5091947;28;20028;-77
2023/02/10 05:54:35;;;;;;;51.40;17.67;;;1.10;99.00;;;;;;5093501;28;20440;-78
2023/02/10 05:57:01;;;;;;;40.00;17.70;;;1.00;99.00;;;;;;5093668;28;20123;-77
2023/02/10 05:59:27;;;;;;;50.83;18.00;;;1.10;99.00;;;;;;5092516;28;20032;-77
2023/02/10 06:01:52;;;;;;;40.43;18.30;;;1.00;99.00;;;;;;5093700;28;20029;-79
2023/02/10 06:04:18;;;;;;;48.53;17.40;;;1.10;99.10;;;;;;5075411;28;20460;-79
2023/02/10 06:06:43;;;;;;;36.67;17.07;;;1.00;99.10;;;;;;5092994;28;20125;-78
2023/02/10 06:09:09;;;;;;;48.37;17.03;;;1.00;99.10;;;;;;5074870;28;20029;-79
2023/02/10 06:11:35;;;;;;;42.13;16.87;;;1.00;99.00;;;;;;5071833;28;20461;-78
2023/02/10 06:14:01;;;;;;;46.93;18.10;;;1.00;99.10;;;;;;5053809;28;20578;-78
2023/02/10 06:16:26;;;;;;;49.00;17.83;;;1.00;99.10;;;;;;5071475;28;20435;-79
2023/02/10 06:18:52;;;;;;;49.43;18.57;;;1.10;99.10;;;;;;5055121;28;20048;-79
2023/02/10 06:21:19;;;;;;;46.27;19.90;;;1.00;99.10;;;;;;5072106;28;20374;-78
2023/02/10 06:23:44;;;;;;;46.23;19.47;;;1.00;99.10;;;;;;5070832;28;20116;-79
2023/02/10 06:26:11;;;;;;;48.07;19.00;;;1.00;99.10;;;;;;5071818;28;20182;-79
2023/02/10 06:28:36;;;;;;;45.37;19.03;;;1.00;99.20;;;;;;5055336;28;20441;-79
2023/02/10 06:31:02;;;;;;;47.73;17.83;;;1.00;99.20;;;;;;5071732;28;20052;-79
2023/02/10 06:33:29;;;;;;;47.17;18.47;;;0.90;99.20;;;;;;5071549;28;20051;-79
2023/02/10 06:35:54;;;;;;;51.40;18.43;;;0.90;99.30;;;;;;5076747;28;20024;-79
2023/02/10 06:38:20;;;;;;;41.00;20.13;;;1.00;99.30;;;;;;5073662;28;20501;-79
2023/02/10 06:40:46;;;;;;;49.40;19.10;;;0.90;99.30;;;;;;5086849;28;20024;-79
2023/02/10 06:43:11;;;;;;;45.27;19.70;;;0.90;99.30;;;;;;5074103;28;20111;-79
2023/02/10 06:45:37;;;;;;;50.93;18.37;;;0.80;99.20;;;;;;5094009;28;20032;-79
2023/02/10 06:48:04;;;;;;;58.57;19.73;;;0.80;99.30;;;;;;5096098;28;20089;-79
2023/02/10 06:50:29;;;;;;;51.93;18.03;;;0.80;99.30;;;;;;5078947;28;20032;-79
2023/02/10 06:52:55;;;;;;;73.23;21.23;;;0.70;99.40;;;;;;5079988;28;20031;-80
2023/02/10 06:55:21;;;;;;;53.23;21.60;;;0.70;99.50;;;;;;5079093;28;20065;-79
2023/02/10 06:57:46;;;;;;;56.00;20.90;;;0.70;99.60;;;;;;5095029;28;20055;-79
2023/02/10 07:00:14;;;;;;;44.80;20.50;;;0.70;99.60;;;;;;5113185;28;20032;-79
2023/02/10 07:02:40;;;;;;;53.87;21.73;;;0.70;99.70;;;;;;5112052;28;20115;-80
2023/02/10 07:05:07;;;;;;;46.73;20.43;;;0.70;99.80;;;;;;5112183;28;20719;-79
2023/02/10 07:07:34;;;;;;;38.70;20.13;;;0.70;99.90;;;;;;5120121;27;20097;-79
2023/02/10 07:10:00;;;;;;;37.77;20.33;;;0.70;99.90;;;;;;5094714;28;20032;-79
2023/02/10 07:12:26;;;;;;;42.63;21.00;;;0.80;99.90;;;;;;5095116;28;20041;-79
2023/02/10 07:14:52;;;;;;;42.60;22.30;;;0.80;99.90;;;;;;5091318;28;20090;-79
2023/02/10 07:17:18;;;;;;;42.73;22.50;;;0.90;99.90;;;;;;5093860;28;20046;-79
2023/02/10 07:19:44;;;;;;;45.73;23.67;;;1.00;99.90;;;;;;5092208;28;20040;-79
2023/02/10 07:22:09;;;;;;;51.20;23.90;;;1.00;99.90;;;;;;5108292;28;20036;-79
2023/02/10 07:24:35;;;;;;;48.20;23.60;;;1.10;99.90;;;;;;5108123;28;20029;-79
2023/02/10 07:27:02;;;;;;;57.63;24.07;;;1.10;99.90;;;;;;5112677;27;20031;-79
2023/02/10 07:29:28;;;;;;;58.27;25.43;;;1.20;99.90;;;;;;5093093;28;20459;-79
2023/02/10 07:31:54;;;;;;;53.17;25.37;;;1.30;99.90;;;;;;5094299;28;20418;-79
2023/02/10 07:34:20;;;;;;;65.53;28.37;;;1.30;99.90;;;;;;5121890;27;20101;-78
2023/02/10 07:36:53;;;;;;;61.67;27.97;;;1.40;99.90;;;;;;5077168;28;20406;-78
2023/02/10 07:39:22;;;;;;;74.03;28.03;;;1.40;99.90;;;;;;5094846;28;20119;-78
2023/02/10 07:41:47;;;;;;;72.37;30.07;;;1.50;99.90;;;;;;5096117;28;20040;-78
2023/02/10 07:44:13;;;;;;;76.47;31.57;;;1.50;99.90;;;;;;5094618;28;20069;-78
2023/02/10 07:46:39;;;;;;;64.70;28.97;;;1.60;99.90;;;;;;5095334;28;20062;-78
2023/02/10 07:49:05;;;;;;;73.50;29.67;;;1.60;99.90;;;;;;5128381;27;20483;-79
2023/02/10 07:51:31;;;;;;;65.97;29.23;;;1.70;99.90;;;;;;5094494;28;20108;-78
2023/02/10 07:53:56;;;;;;;67.93;29.73;;;1.70;99.90;;;;;;5077702;28;20048;-79
2023/02/10 07:56:22;;;;;;;74.90;26.63;;;1.80;99.90;;;;;;5093158;28;20068;-79
2023/02/10 07:58:48;;;;;;;66.33;28.73;;;1.80;99.90;;;;;;5094348;28;20032;-78
2023/02/10 08:01:13;;;;;;;58.47;28.23;;;1.90;99.90;;;;;;5078079;28;20024;-81
2023/02/10 08:03:39;;;;;;;64.40;25.70;;;1.90;99.90;;;;;;5094114;28;20035;-81
2023/02/10 08:06:05;;;;;;;56.50;27.23;;;1.90;99.90;;;;;;5092376;28;20036;-82
2023/02/10 08:08:31;;;;;;;62.93;26.77;;;2.00;99.90;;;;;;5093543;28;20098;-81
2023/02/10 08:10:57;;;;;;;54.93;29.57;;;2.00;99.90;;;;;;5059308;28;20028;-81
2023/02/10 08:13:24;;;;;;;52.07;27.13;;;2.00;99.90;;;;;;5076729;28;20100;-82
2023/02/10 08:15:50;;;;;;;62.63;27.60;;;2.10;99.90;;;;;;5093296;28;20024;-81
2023/02/10 08:18:16;;;;;;;56.57;27.93;;;2.10;99.90;;;;;;5094844;28;20059;-81
2023/02/10 08:20:42;;;;;;;56.70;27.67;;;2.20;99.90;;;;;;5073893;28;20029;-81
2023/02/10 08:23:13;;;;;;;56.80;27.87;;;2.20;99.90;;;;;;5091322;28;20025;-80
2023/02/10 08:25:38;;;;;;;50.80;24.30;;;2.20;99.90;;;;;;5090596;28;20028;-82
2023/02/10 08:28:04;;;;;;;54.83;26.83;;;2.20;99.90;;;;;;5092011;28;20036;-82
2023/02/10 08:30:30;;;;;;;54.80;28.57;;;2.20;99.90;;;;;;5113063;28;20491;-81
2023/02/10 08:32:56;;;;;;;53.23;27.10;;;2.20;99.90;;;;;;5095531;28;20383;-79
2023/02/10 08:35:22;;;;;;;54.13;25.87;;;2.20;99.90;;;;;;5093522;28;20028;-78
2023/02/10 08:37:47;;;;;;;55.97;28.50;;;2.30;99.90;;;;;;5093292;28;20046;-79
2023/02/10 08:40:13;;;;;;;55.23;27.13;;;2.30;99.90;;;;;;5128178;27;20434;-78
2023/02/10 08:42:39;;;;;;;56.07;27.37;;;2.30;99.90;;;;;;5095175;28;20039;-78
2023/02/10 08:45:05;;;;;;;57.03;26.33;;;2.30;99.90;;;;;;5109850;28;20033;-78
2023/02/10 08:47:30;;;;;;;54.57;26.23;;;2.30;99.90;;;;;;5121757;27;20036;-79
2023/02/10 08:49:56;;;;;;;57.27;27.57;;;2.30;99.90;;;;;;5092693;28;20077;-78
2023/02/10 08:52:23;;;;;;;62.57;27.63;;;2.30;99.90;;;;;;5093682;28;20054;-78
2023/02/10 08:54:49;;;;;;;53.63;26.43;;;2.40;99.90;;;;;;5093523;28;20024;-79
2023/02/10 08:57:14;;;;;;;55.13;25.93;;;2.30;99.90;;;;;;5076050;28;20097;-78
2023/02/10 08:59:40;;;;;;;57.63;27.10;;;2.40;99.90;;;;;;5074615;28;20036;-78
2023/02/10 09:02:06;;;;;;;58.77;29.60;;;2.50;99.90;;;;;;5093571;28;20032;-78
2023/02/10 09:04:32;;;;;;;54.10;27.60;;;2.40;99.90;;;;;;5093224;28;20193;-78
2023/02/10 09:06:57;;;;;;;57.23;27.17;;;2.50;99.90;;;;;;5107912;28;20119;-79
2023/02/10 09:09:25;;;;;;;53.90;26.83;;;2.50;99.90;;;;;;5092564;28;20016;-78
2023/02/10 09:11:53;;;;;;;55.87;27.57;;;2.60;99.90;;;;;;5093835;28;20035;-79
2023/02/10 09:14:19;;;;;;;57.67;27.20;;;2.60;99.90;;;;;;5092501;28;20038;-79
2023/02/10 09:16:44;;;;;;;53.33;26.53;;;2.50;99.90;;;;;;5093882;28;20068;-79
2023/02/10 09:19:10;;;;;;;60.47;28.43;;;2.60;99.90;;;;;;5074801;28;20439;-79
2023/02/10 09:21:36;;;;;;;52.67;24.27;;;2.70;99.90;;;;;;5076150;28;20130;-79
2023/02/10 09:24:01;;;;;;;52.97;25.57;;;2.70;99.90;;;;;;5092705;28;20016;-79
2023/02/10 09:26:27;;;;;;;56.13;25.37;;;2.80;99.90;;;;;;5091604;28;20067;-79
2023/02/10 09:28:53;;;;;;;55.47;25.60;;;2.80;99.90;;;;;;5094018;28;20388;-79
2023/02/10 09:31:18;;;;;;;59.37;25.70;;;2.90;99.90;;;;;;5091164;28;20395;-79
2023/02/10 09:33:44;;;;;;;60.17;27.50;;;2.90;99.90;;;;;;5094207;28;20027;-79
2023/02/10 09:36:14;;;;;;;62.23;30.33;;;2.90;99.90;;;;;;5091824;28;20399;-79
2023/02/10 09:38:40;;;;;;;58.87;29.43;;;3.00;99.90;;;;;;5091832;28;20012;-79
2023/02/10 09:41:14;;;;;;;65.67;30.20;;;3.10;99.90;;;;;;5092405;28;20017;-79
2023/02/10 09:43:39;;;;;;;;;;;3.10;99.90;;;;;;5094105;28;20131;-79
2023/02/10 09:46:33;;;;;;;61.43;29.37;;;3.10;99.90;;;;;;5093659;28;20352;-79
2023/02/10 09:49:26;;;;;;;65.07;28.10;;;3.20;99.90;;;;;;5093575;28;20020;-79
2023/02/10 09:52:22;;;;;;;66.23;29.63;;;3.20;99.90;;;;;;5093017;28;20024;-79
2023/02/10 09:54:49;;;;;;;60.33;27.97;;;3.30;99.90;;;;;;5088997;28;20099;-79
2023/02/10 09:57:20;;;;;;;64.00;28.10;;;3.40;99.90;;;;;;5091848;28;20040;-79
2023/02/10 09:59:50;;;;;;;63.80;27.10;;;3.50;99.90;;;;;;5092067;28;20476;-79
2023/02/10 10:02:27;;;;;;;58.17;27.07;;;3.60;99.90;;;;;;5091845;28;20441;-79
2023/02/10 10:04:54;;;;;;;62.60;28.67;;;3.70;99.90;;;;;;5090534;28;20024;-79
2023/02/10 10:07:38;;;;;;;59.30;27.97;;;3.90;99.90;;;;;;5090197;28;20036;-79
2023/02/10 10:10:14;;;;;;;60.47;26.67;;;4.10;99.90;;;;;;5097274;28;20052;-79
2023/02/10 10:12:39;;;;;;;55.20;26.33;;;4.20;99.90;;;;;;5089675;28;20115;-79
2023/02/10 10:15:15;;;;;;;59.23;27.17;;;4.40;99.90;;;;;;5082013;28;20380;-79
2023/02/10 10:17:56;;;;;;;51.10;24.73;;;4.40;99.90;;;;;;5091361;28;20101;-78
2023/02/10 10:20:36;;;;;;;57.20;26.27;;;4.30;99.90;;;;;;5090997;28;20122;-79
2023/02/10 10:23:23;;;;;;;60.97;28.73;;;4.40;99.90;;;;;;5091989;28;20027;-79
2023/02/10 10:26:16;;;;;;;58.53;27.13;;;4.40;99.90;;;;;;5091230;28;20047;-79
2023/02/10 10:29:00;;;;;;;56.63;27.37;;;4.60;99.90;;;;;;5091724;28;20028;-79
2023/02/10 10:31:32;;;;;;;51.90;23.77;;;4.70;99.90;;;;;;5092845;28;20028;-79
2023/02/10 10:34:07;;;;;;;50.83;24.13;;;4.90;99.90;;;;;;5091135;28;20047;-79
2023/02/10 10:36:46;;;;;;;56.67;26.80;;;5.20;99.90;;;;;;5091177;28;20082;-79
2023/02/10 10:39:36;;;;;;;47.00;24.43;;;5.40;99.90;;;;;;5093144;28;20032;-79
2023/02/10 10:42:26;;;;;;;51.80;25.60;;;5.60;99.90;;;;;;5090978;28;20032;-79
2023/02/10 10:45:27;;;;;;;52.27;23.63;;;5.90;99.90;;;;;;5088689;28;20468;-80
2023/02/10 10:48:00;;;;;;;47.60;23.50;;;6.40;99.90;;;;;;5084197;28;20036;-79
2023/02/10 10:50:27;;;;;;;45.75;23.10;;;7.00;99.90;;;;;;5090066;28;20601;-79
2023/02/10 10:52:55;;;;;;;52.27;25.97;;;7.70;99.90;;;;;;5091544;28;20046;-80
2023/02/10 10:55:41;;;;;;;43.22;24.15;;;8.40;99.90;;;;;;5088348;28;20025;-80
2023/02/10 10:58:39;;;;;;;39.80;22.05;;;9.00;99.90;;;;;;5089017;28;20043;-78
2023/02/10 11:01:05;;;;;;;42.28;22.55;;;9.50;99.90;;;;;;5085436;28;20032;-78
2023/02/10 11:03:32;;;;;;;43.58;22.52;;;10.00;99.90;;;;;;5116373;27;20035;-79
2023/02/10 11:06:00;;;;;;;37.22;20.48;;;10.50;99.90;;;;;;5092661;28;20032;-78
2023/02/10 11:08:38;;;;;;;38.42;20.55;;;11.00;99.90;;;;;;5093201;28;20031;-79
2023/02/10 11:11:09;;;;;;;33.08;17.60;;;11.60;99.90;;;;;;5089984;28;20134;-78
2023/02/10 11:13:36;;;;;;;38.30;22.50;;;12.10;98.70;;;;;;5091224;28;20030;-78
2023/02/10 11:16:12;;;;;;;42.08;22.55;;;12.40;95.60;;;;;;5087822;28;20491;-79
2023/02/10 11:18:39;;;;;;;36.85;21.27;;;12.70;93.10;;;;;;5078427;28;20044;-79
2023/02/10 11:21:09;;;;;;;41.08;22.60;;;13.20;91.90;;;;;;5089751;28;20505;-78
2023/02/10 11:23:52;;;;;;;38.22;22.83;;;13.60;90.90;;;;;;5092352;28;20054;-79
2023/02/10 11:26:24;;;;;;;38.35;21.65;;;14.20;87.50;;;;;;5071905;28;20038;-79
2023/02/10 11:28:51;;;;;;;37.00;21.70;;;14.50;84.90;;;;;;5070951;28;20063;-80
2023/02/10 11:31:31;;;;;;;38.78;21.08;;;14.90;82.70;;;;;;5073909;28;20029;-79
2023/02/10 11:34:15;;;;;;;37.00;21.05;;;15.20;80.00;;;;;;5082970;28;20020;-79
2023/02/10 11:36:42;;;;;;;36.97;22.42;;;15.50;75.70;;;;;;5093624;28;20032;-79
2023/02/10 11:39:26;;;;;;;35.47;21.55;;;15.70;73.10;;;;;;5094946;28;20032;-79
2023/02/10 11:41:52;;;;;;;37.80;20.88;;;15.90;70.80;;;;;;5094517;28;20107;-80
2023/02/10 11:44:28;;;;;;;33.35;19.60;;;16.10;69.60;;;;;;5094987;28;20024;-80
2023/02/10 11:46:57;;;;;;;31.15;18.05;;;16.40;68.60;;;;;;5095714;28;20043;-80
2023/02/10 11:49:27;;;;;;;34.47;20.92;;;16.70;68.40;;;;;;5096302;28;20036;-79
2023/02/10 11:51:55;;;;;;;34.85;20.27;;;16.90;67.10;;;;;;5096075;28;20027;-79
2023/02/10 11:54:21;;;;;;;32.75;20.33;;;17.20;65.10;;;;;;5094446;28;20070;-79
2023/02/10 12:00:14;;;;;;;31.25;18.55;;;17.70;62.70;;;;;;5094914;28;20038;-80
2023/02/10 12:03:10;;;;;;;36.20;20.17;;;17.90;61.40;;;;;;5096567;28;20072;-80
2023/02/10 12:05:55;;;;;;;31.33;18.63;;;18.10;59.30;;;;;;5094639;28;20047;-79
2023/02/10 12:08:39;;;;;;;32.50;18.50;;;18.20;57.40;;;;;;5092973;28;20035;-80
2023/02/10 12:11:19;;;;;;;33.53;18.35;;;18.10;56.10;;;;;;5092990;28;20029;-79
2023/02/10 12:14:21;;;;;;;27.30;16.77;;;18.10;55.90;;;;;;5095216;28;20118;-79
2023/02/10 12:17:14;;;;;;;28.52;17.27;;;18.20;55.60;;;;;;5092249;28;20055;-80
2023/02/10 12:20:04;;;;;;;29.73;16.85;;;18.30;55.50;;;;;;5092955;28;20121;-79
2023/02/10 12:23:07;;;;;;;27.13;15.55;;;18.50;54.90;;;;;;5093286;28;20055;-79
2023/02/10 12:25:48;;;;;;;26.13;15.82;;;18.60;54.10;;;;;;5095189;28;20097;-79
2023/02/10 12:28:36;;;;;;;26.75;15.90;;;18.50;53.90;;;;;;5096180;28;20016;-80
2023/02/10 12:31:31;;;;;;;25.63;15.93;;;18.50;53.50;;;;;;5094548;28;20027;-79
2023/02/10 12:34:17;;;;;;;26.08;14.98;;;18.50;52.00;;;;;;5094380;28;20032;-79
2023/02/10 12:37:11;;;;;;;25.67;15.27;;;18.50;51.90;;;;;;5093667;28;20032;-79
2023/02/10 12:39:43;;;;;;;25.33;13.30;;;18.60;51.40;;;;;;5096022;28;20028;-79
2023/02/10 12:42:35;;;;;;;26.58;13.60;;;18.60;51.10;;;;;;5094300;28;20110;-79
2023/02/10 12:45:28;;;;;;;25.88;13.50;;;18.50;49.90;;;;;;5094980;28;20483;-79
2023/02/10 12:48:20;;;;;;;23.58;12.77;;;18.50;50.00;;;;;;5095808;28;20038;-79
2023/02/10 12:50:55;;;;;;;24.65;12.85;;;18.60;50.10;;;;;;5095425;28;20031;-79
2023/02/10 12:53:36;;;;;;;21.27;12.27;;;18.80;50.00;;;;;;5092088;28;20024;-79